Time;durP1;ratioP1;P1;durP2;ratioP2;P2;SDS_P1;SDS_P2;PMS_P1;PMS_P2;Temp;Humidity;BMP_temperature;BMP_pressure;BME280_temperature;BME280_humidity;BME280_pressure;Samples;Min_cycle;Max_cycle;Signal;HPM_P1;HPM_P2
2022/09/08 00:00:26;;;;;;;11.27;10.68;;;;;;;20.09;62.75;101523.38;4974582;28;103826;-48
2022/09/08 00:02:53;;;;;;;11.93;11.30;;;;;;;20.08;62.72;101521.72;4973005;28;102260;-49
2022/09/08 00:05:23;;;;;;;11.93;11.23;;;;;;;20.08;62.66;101510.66;4964946;28;102431;-48
2022/09/08 00:07:52;;;;;;;13.30;12.50;;;;;;;20.08;62.72;101516.19;4972472;28;102244;-48
2022/09/08 00:10:19;;;;;;;11.20;10.60;;;;;;;20.09;62.69;101521.44;4966415;28;103882;-49
2022/09/08 00:12:48;;;;;;;14.45;13.65;;;;;;;20.08;62.58;101510.66;4970377;28;102267;-48
2022/09/08 00:15:15;;;;;;;11.93;11.32;;;;;;;20.08;62.65;101499.63;4972073;28;102226;-49
2022/09/08 00:17:43;;;;;;;11.63;10.98;;;;;;;20.08;62.97;101494.09;4960376;28;102145;-49
2022/09/08 00:20:10;;;;;;;11.82;11.18;;;;;;;20.08;62.80;101499.63;4961115;28;103973;-49
2022/09/08 00:22:36;;;;;;;12.05;11.45;;;;;;;20.09;62.87;101498.50;4972766;28;101998;-48
2022/09/08 00:25:03;;;;;;;13.32;12.52;;;;;;;20.09;62.79;101501.28;4964882;28;101973;-49
2022/09/08 00:27:30;;;;;;;12.30;11.63;;;;;;;20.08;62.66;101488.56;4974707;28;102639;-49
2022/09/08 00:29:58;;;;;;;12.63;11.93;;;;;;;20.09;62.66;101498.50;4973321;28;104935;-49
2022/09/08 00:32:25;;;;;;;12.32;11.63;;;;;;;20.10;62.82;101491.84;4970126;28;102334;-49
2022/09/08 00:34:52;;;;;;;11.63;10.82;;;;;;;20.09;63.14;101506.81;4971859;28;102314;-49
2022/09/08 00:37:18;;;;;;;12.95;12.15;;;;;;;20.09;62.97;101490.22;4973513;28;103507;-49
2022/09/08 00:39:46;;;;;;;13.45;12.65;;;;;;;20.08;63.31;101494.91;4956879;28;104884;-49
2022/09/08 00:42:13;;;;;;;12.63;11.93;;;;;;;20.08;62.99;101483.03;4971917;28;102245;-49
2022/09/08 00:44:48;;;;;;;12.95;12.25;;;;;;;20.08;63.10;101483.03;4972565;28;102572;-48
2022/09/08 00:47:20;;;;;;;14.13;13.43;;;;;;;20.08;62.95;101483.03;4968220;28;102152;-49
2022/09/08 00:49:50;;;;;;;13.55;12.75;;;;;;;20.07;63.02;101462.88;4973488;28;104236;-50
2022/09/08 00:52:18;;;;;;;13.40;12.60;;;;;;;20.07;62.92;101471.19;4961298;28;102056;-49
2022/09/08 00:54:46;;;;;;;11.23;10.63;;;;;;;20.07;63.11;101465.66;4975627;28;102212;-49
2022/09/08 00:57:13;;;;;;;13.13;12.32;;;;;;;20.07;63.12;101471.19;4972852;28;102284;-49
2022/09/08 00:59:40;;;;;;;13.10;12.35;;;;;;;20.08;62.98;101469.22;4974012;28;104009;-49
2022/09/08 01:02:24;;;;;;;11.95;11.18;;;;;;;20.07;63.00;101457.34;4975075;28;102807;-49
2022/09/08 01:04:53;;;;;;;12.35;11.65;;;;;;;20.08;63.16;101463.69;4969515;28;102511;-51
2022/09/08 01:13:25;;;;;;;11.77;11.07;;;;;;;20.08;63.07;101460.94;4967546;28;102370;-49
2022/09/08 01:15:52;;;;;;;11.82;11.15;;;;;;;20.08;63.21;101461.75;4973012;28;102382;-49
2022/09/08 01:18:20;;;;;;;14.07;13.30;;;;;;;20.08;63.09;101455.41;4975141;28;102447;-49
2022/09/08 01:20:53;;;;;;;16.05;15.05;;;;;;;20.08;63.20;101449.88;4962955;28;104018;-49
2022/09/08 01:23:48;;;;;;;14.95;14.13;;;;;;;20.08;63.08;101444.34;4957194;28;102306;-50
2022/09/08 01:26:37;;;;;;;12.98;12.27;;;;;;;20.07;63.00;101445.50;4964227;28;102468;-48
2022/09/08 01:29:08;;;;;;;13.57;12.77;;;;;;;20.06;63.13;101447.44;4965473;28;102390;-49
2022/09/08 01:31:38;;;;;;;14.75;13.95;;;;;;;20.07;63.06;101448.25;4969623;28;104015;-49
2022/09/08 01:34:05;;;;;;;13.57;12.82;;;;;;;20.06;62.92;101441.09;4957619;28;102232;-49
2022/09/08 01:36:32;;;;;;;12.90;12.18;;;;;;;20.07;63.02;101434.44;4969622;28;102495;-49
2022/09/08 01:38:58;;;;;;;12.88;12.18;;;;;;;20.06;63.22;101430.88;4972145;28;102255;-49
2022/09/08 01:41:26;;;;;;;13.60;12.70;;;;;;;20.07;63.10;101437.22;4962937;28;104079;-49
2022/09/08 01:43:52;;;;;;;14.75;13.85;;;;;;;20.06;63.08;101433.63;4968384;28;103046;-49
2022/09/08 01:46:20;;;;;;;13.68;12.77;;;;;;;20.06;62.83;101438.34;4969725;28;102330;-50
2022/09/08 01:48:46;;;;;;;14.93;14.00;;;;;;;20.07;63.28;101434.44;4974326;28;102429;-49
2022/09/08 01:51:13;;;;;;;15.05;14.25;;;;;;;20.06;63.34;101438.34;4972543;28;103888;-50
2022/09/08 01:53:39;;;;;;;13.82;13.02;;;;;;;20.06;63.31;101435.59;4972957;28;102502;-48
2022/09/08 01:56:06;;;;;;;13.98;13.05;;;;;;;20.07;63.18;101439.97;4971074;28;102307;-49
2022/09/08 01:58:33;;;;;;;15.27;14.38;;;;;;;20.07;63.23;101431.69;4967102;28;102287;-48
2022/09/08 02:01:01;;;;;;;12.23;11.50;;;;;;;20.07;63.22;101434.44;4967827;28;103606;-48
2022/09/08 02:03:30;;;;;;;12.68;11.95;;;;;;;20.08;63.31;101433.31;4973368;28;102394;-48
2022/09/08 02:06:00;;;;;;;14.52;13.63;;;;;;;20.07;63.32;101439.97;4971095;28;102652;-49
2022/09/08 02:08:27;;;;;;;14.07;13.27;;;;;;;20.08;63.42;101438.81;4975119;28;103426;-48
2022/09/08 02:10:56;;;;;;;14.45;13.65;;;;;;;20.08;63.45;101436.06;4967616;28;104166;-49
2022/09/08 02:13:23;;;;;;;14.83;14.07;;;;;;;20.07;63.36;101438.03;4974707;28;102401;-48
2022/09/08 02:15:49;;;;;;;14.23;13.43;;;;;;;20.08;63.43;101438.81;4972126;28;102439;-48
2022/09/08 02:18:16;;;;;;;14.38;13.52;;;;;;;20.08;63.52;101444.34;4973934;28;102441;-49
2022/09/08 02:20:44;;;;;;;13.82;13.13;;;;;;;20.08;63.63;101436.06;4970774;28;104670;-49
2022/09/08 02:23:11;;;;;;;12.90;12.07;;;;;;;20.07;63.54;101442.72;4963005;28;102355;-48
2022/09/08 02:25:37;;;;;;;14.75;13.85;;;;;;;20.07;63.80;101437.22;4969504;28;102164;-48
2022/09/08 02:28:04;;;;;;;15.90;15.07;;;;;;;20.07;63.85;101438.03;4968321;28;102201;-49
2022/09/08 02:30:30;;;;;;;15.77;14.70;;;;;;;20.07;63.51;101431.69;4966476;28;103887;-48
2022/09/08 02:32:57;;;;;;;15.90;15.00;;;;;;;20.08;63.75;101427.78;4965275;28;102036;-49
2022/09/08 02:35:23;;;;;;;14.52;13.73;;;;;;;20.07;63.51;101426.97;4967048;28;102470;-49
2022/09/08 02:37:51;;;;;;;14.93;14.02;;;;;;;20.06;63.74;101430.06;4971865;28;102372;-48
2022/09/08 02:40:18;;;;;;;14.13;13.23;;;;;;;20.06;63.46;101424.53;4972512;28;104958;-49
2022/09/08 02:42:47;;;;;;;12.90;12.20;;;;;;;20.07;63.50;101428.91;4977415;28;102313;-50
2022/09/08 02:45:14;;;;;;;15.18;14.27;;;;;;;20.07;63.77;101426.16;4970661;28;102192;-49
2022/09/08 02:47:41;;;;;;;13.07;12.27;;;;;;;20.08;63.87;101427.78;4976816;28;102618;-49
2022/09/08 02:50:08;;;;;;;14.98;14.18;;;;;;;20.06;63.68;101419.00;4971390;28;103695;-49
2022/09/08 02:52:34;;;;;;;14.90;13.95;;;;;;;20.08;63.78;101422.25;4972521;28;102396;-48
2022/09/08 02:55:03;;;;;;;14.48;13.65;;;;;;;20.07;63.72;101415.09;4961972;28;102355;-49
2022/09/08 02:57:29;;;;;;;14.10;13.40;;;;;;;20.06;64.00;101413.47;4969743;28;103931;-48
2022/09/08 02:59:56;;;;;;;14.85;14.05;;;;;;;20.05;63.93;101406.31;4971274;28;103968;-48
2022/09/08 03:02:22;;;;;;;15.05;14.25;;;;;;;20.07;64.02;101420.63;4972238;28;102687;-49
2022/09/08 03:04:49;;;;;;;15.07;14.18;;;;;;;20.08;64.08;101416.72;4975194;28;102115;-48
2022/09/08 03:07:16;;;;;;;13.25;12.50;;;;;;;20.07;64.00;101410.38;4977806;28;102756;-48
2022/09/08 03:09:44;;;;;;;15.90;15.00;;;;;;;20.07;64.31;101404.03;4969778;28;104205;-49
2022/09/08 03:12:12;;;;;;;14.75;13.85;;;;;;;20.08;64.28;101422.25;4965288;28;102186;-49
2022/09/08 03:14:39;;;;;;;14.18;13.27;;;;;;;20.06;64.21;101414.28;4968398;28;104558;-51
2022/09/08 03:17:05;;;;;;;15.48;14.60;;;;;;;20.06;64.46;101407.97;4977650;28;102417;-48
2022/09/08 03:19:32;;;;;;;16.27;15.27;;;;;;;20.06;64.25;101414.28;4974566;28;104020;-49
2022/09/08 03:21:59;;;;;;;16.15;15.25;;;;;;;20.06;64.56;101419.81;4976888;28;102230;-48
2022/09/08 03:24:26;;;;;;;15.20;14.27;;;;;;;20.07;64.31;101421.44;4964632;28;102382;-49
2022/09/08 03:26:53;;;;;;;16.05;14.90;;;;;;;20.07;64.20;101415.91;4966363;28;102577;-49
2022/09/08 03:29:21;;;;;;;14.82;13.82;;;;;;;20.06;64.13;101417.06;4972542;28;103904;-48
2022/09/08 03:31:47;;;;;;;15.95;14.98;;;;;;;20.07;64.25;101415.09;4973861;28;102056;-48
2022/09/08 03:34:14;;;;;;;15.52;14.63;;;;;;;20.06;64.61;101414.28;4975586;28;102177;-50
2022/09/08 03:36:41;;;;;;;16.73;15.77;;;;;;;20.06;64.41;101419.00;4974075;28;102248;-49
2022/09/08 03:39:08;;;;;;;16.13;15.20;;;;;;;20.06;64.40;101421.78;4973750;28;103776;-49
2022/09/08 03:41:35;;;;;;;17.08;15.98;;;;;;;20.05;64.40;101420.97;4973552;28;102437;-49
2022/09/08 03:44:03;;;;;;;18.30;17.10;;;;;;;20.05;64.51;101412.66;4972210;28;103199;-49
2022/09/08 03:46:31;;;;;;;16.08;15.23;;;;;;;20.04;64.45;101416.53;4972685;28;102445;-48
2022/09/08 03:48:57;;;;;;;16.27;15.27;;;;;;;20.05;64.52;101411.81;4962334;28;103853;-48
2022/09/08 03:51:25;;;;;;;16.90;15.95;;;;;;;20.05;64.44;101422.88;4972854;28;102240;-50
2022/09/08 03:53:53;;;;;;;15.82;14.85;;;;;;;20.03;64.36;101431.50;4962229;28;102205;-48
2022/09/08 03:56:21;;;;;;;16.38;15.38;;;;;;;20.05;64.56;101428.41;4973454;28;102888;-49
2022/09/08 03:58:47;;;;;;;13.73;12.73;;;;;;;20.04;64.57;101429.53;4972643;28;104022;-49
2022/09/08 04:01:17;;;;;;;15.85;14.77;;;;;;;20.03;64.77;101430.69;4972203;28;102265;-50
2022/09/08 04:03:45;;;;;;;16.33;15.27;;;;;;;20.05;64.73;101422.88;4968803;28;102106;-49
2022/09/08 04:06:12;;;;;;;16.70;15.70;;;;;;;20.04;64.63;101435.88;4967129;28;102465;-48
2022/09/08 04:08:39;;;;;;;16.10;15.00;;;;;;;20.04;64.82;101429.53;4966378;28;104017;-49
2022/09/08 04:11:05;;;;;;;15.88;15.00;;;;;;;20.02;64.65;101429.06;4967773;28;102328;-49
2022/09/08 04:13:32;;;;;;;16.35;15.25;;;;;;;20.04;64.50;101433.13;4957057;28;102241;-49
2022/09/08 04:15:58;;;;;;;18.13;17.02;;;;;;;20.04;64.47;101427.59;4969332;28;102582;-49
2022/09/08 04:18:25;;;;;;;18.35;17.25;;;;;;;20.05;64.44;101432.00;4971686;28;104064;-49
2022/09/08 04:21:03;;;;;;;16.58;15.50;;;;;;;20.05;64.74;101434.78;4964120;28;102018;-49
2022/09/08 04:23:31;;;;;;;15.82;14.73;;;;;;;20.05;64.79;101433.94;4970437;28;102518;-49
2022/09/08 04:26:00;;;;;;;16.83;15.73;;;;;;;20.05;64.66;101433.94;4973618;28;102225;-49
2022/09/08 04:28:27;;;;;;;15.80;14.90;;;;;;;20.05;64.86;101436.69;4969658;28;104182;-48
2022/09/08 04:30:54;;;;;;;15.80;14.85;;;;;;;20.03;64.77;101437.03;4973733;28;103585;-48
2022/09/08 04:33:21;;;;;;;16.63;15.70;;;;;;;20.04;64.84;101433.13;4972357;28;102164;-48
2022/09/08 04:35:48;;;;;;;15.90;14.60;;;;;;;20.04;64.65;101426.78;4961959;28;102310;-48
2022/09/08 04:38:16;;;;;;;15.32;14.43;;;;;;;20.06;64.58;101435.59;4957422;28;104888;-48
2022/09/08 04:40:42;;;;;;;16.53;15.33;;;;;;;20.06;64.90;101424.53;4968311;28;102122;-48
2022/09/08 04:43:09;;;;;;;14.60;13.55;;;;;;;20.05;64.87;101431.16;4974061;28;102697;-48
2022/09/08 04:45:35;;;;;;;15.23;14.13;;;;;;;20.05;64.74;101425.66;4978485;28;102336;-49
2022/09/08 04:48:02;;;;;;;16.80;15.57;;;;;;;20.05;64.77;101417.34;4968678;28;103937;-49
2022/09/08 04:50:29;;;;;;;16.27;15.20;;;;;;;20.05;64.82;101420.13;4964038;28;102046;-49
2022/09/08 04:52:56;;;;;;;17.83;16.73;;;;;;;20.05;64.65;101420.13;4969829;28;102252;-49
2022/09/08 04:55:23;;;;;;;15.98;14.98;;;;;;;20.06;64.85;101430.06;4970973;28;102231;-48
2022/09/08 04:57:50;;;;;;;17.95;16.73;;;;;;;20.05;64.85;101422.88;4967105;28;103801;-48
2022/09/08 05:00:18;;;;;;;14.73;13.82;;;;;;;20.06;64.79;101425.34;4968163;28;102963;-49
2022/09/08 05:02:46;;;;;;;15.33;14.33;;;;;;;20.05;64.89;101412.66;4972836;28;103740;-48
2022/09/08 05:05:12;;;;;;;15.95;14.90;;;;;;;20.07;65.06;101404.03;4973174;28;102414;-48
2022/09/08 05:07:41;;;;;;;15.82;14.90;;;;;;;20.05;64.86;101414.59;4967483;28;104227;-48
2022/09/08 05:10:08;;;;;;;15.07;14.13;;;;;;;20.06;64.72;101408.75;4969464;28;102552;-48
2022/09/08 05:12:38;;;;;;;15.13;14.10;;;;;;;20.06;64.53;101403.25;4963021;28;102046;-48
2022/09/08 05:15:06;;;;;;;16.70;15.65;;;;;;;20.08;64.68;101397.38;4966028;28;102266;-49
2022/09/08 05:17:32;;;;;;;18.10;17.10;;;;;;;20.10;64.54;101398.69;4965414;28;104627;-49
2022/09/08 05:19:58;;;;;;;16.23;15.20;;;;;;;20.11;64.69;101393.97;4968014;28;102218;-50
2022/09/08 05:22:25;;;;;;;16.60;15.50;;;;;;;20.15;64.62;101403.25;4972411;28;105043;-49
2022/09/08 05:24:53;;;;;;;17.98;16.75;;;;;;;20.18;64.65;101394.34;4967657;28;102780;-50
2022/09/08 05:27:20;;;;;;;17.17;16.02;;;;;;;20.20;64.56;101391.28;4955586;28;104155;-49
2022/09/08 05:29:49;;;;;;;17.65;16.42;;;;;;;20.21;64.48;101395.66;4971282;28;101946;-49
2022/09/08 05:32:16;;;;;;;17.88;16.40;;;;;;;20.24;64.50;101395.03;4964078;28;102200;-49
2022/09/08 05:34:43;;;;;;;17.05;15.95;;;;;;;20.25;64.54;101394.69;4965695;28;102560;-49
2022/09/08 05:37:09;;;;;;;18.63;17.42;;;;;;;20.27;64.55;101402.69;4971863;28;104366;-48
2022/09/08 05:39:36;;;;;;;16.63;15.38;;;;;;;20.27;64.62;101397.97;4969329;28;101999;-49
2022/09/08 05:42:02;;;;;;;18.83;17.70;;;;;;;20.29;64.65;101397.63;4963356;28;102601;-49
2022/09/08 05:44:29;;;;;;;18.10;16.83;;;;;;;20.27;64.59;101397.97;4965573;28;102465;-48
2022/09/08 05:46:57;;;;;;;19.17;17.90;;;;;;;20.27;64.76;101397.97;4967220;28;104005;-49
2022/09/08 05:49:23;;;;;;;16.00;14.88;;;;;;;20.27;64.67;101397.97;4962514;28;103814;-49
2022/09/08 05:51:52;;;;;;;19.17;17.77;;;;;;;20.28;64.73;101398.75;4960205;28;102520;-49
2022/09/08 05:54:19;;;;;;;15.53;14.33;;;;;;;20.30;64.90;101394.56;4964542;28;103606;-48
2022/09/08 05:56:46;;;;;;;17.45;16.35;;;;;;;20.32;64.83;101405.28;4969179;28;104230;-48
2022/09/08 05:59:13;;;;;;;18.35;16.60;;;;;;;20.34;65.17;101403.84;4970647;28;102143;-47
2022/09/08 06:01:40;;;;;;;16.73;15.40;;;;;;;20.36;65.16;101404.31;4972979;28;102335;-49
2022/09/08 06:04:08;;;;;;;17.00;16.00;;;;;;;20.36;64.93;101393.25;4963492;28;102530;-48
2022/09/08 06:06:35;;;;;;;18.65;17.52;;;;;;;20.38;64.79;101398.47;4971253;28;103925;-48
2022/09/08 06:09:03;;;;;;;17.23;15.93;;;;;;;20.40;64.92;101397.00;4964941;28;102574;-49
2022/09/08 06:11:32;;;;;;;17.92;16.58;;;;;;;20.40;64.63;101388.69;4961036;28;102239;-48
2022/09/08 06:13:59;;;;;;;;;;;;;;;20.43;64.65;101389.22;4959997;28;102708;-49
2022/09/08 06:16:26;;;;;;;14.93;13.77;;;;;;;20.43;64.88;101384.50;4958682;28;104075;-48
2022/09/08 06:18:53;;;;;;;16.23;14.93;;;;;;;20.45;64.96;101386.91;4974530;28;102393;-47
2022/09/08 06:21:24;;;;;;;16.67;15.57;;;;;;;20.45;64.98;101384.16;4976975;28;102146;-47
2022/09/08 06:23:52;;;;;;;19.48;18.05;;;;;;;20.46;64.78;101389.38;4977678;28;102289;-48
2022/09/08 06:26:47;;;;;;;20.50;19.10;;;;;;;20.46;64.99;101383.84;4977235;28;103925;-48
2022/09/08 06:29:19;;;;;;;18.90;17.33;;;;;;;20.47;65.03;101385.47;4974178;28;102191;-48
2022/09/08 06:31:51;;;;;;;17.80;16.50;;;;;;;20.50;64.93;101384.06;4977451;28;102200;-47
2022/09/08 06:34:22;;;;;;;17.75;16.63;;;;;;;20.50;64.78;101389.59;4969820;28;104667;-47
2022/09/08 06:36:52;;;;;;;17.02;15.93;;;;;;;20.49;64.97;101387.94;4966691;28;103961;-47
2022/09/08 06:39:23;;;;;;;19.88;18.48;;;;;;;20.51;65.09;101396.72;4973519;28;102273;-47
2022/09/08 06:41:56;;;;;;;17.95;16.45;;;;;;;20.51;65.43;101391.19;4972230;28;103071;-49
2022/09/08 06:44:28;;;;;;;19.88;18.30;;;;;;;20.52;65.19;101392.81;4974916;28;102423;-48
2022/09/08 06:46:56;;;;;;;19.90;17.95;;;;;;;20.52;65.48;101409.41;4959737;28;103922;-47
2022/09/08 06:49:26;;;;;;;19.17;17.88;;;;;;;20.53;65.31;101403.59;4959133;28;102334;-48
2022/09/08 06:52:01;;;;;;;16.50;15.25;;;;;;;20.55;65.54;101408.78;4970880;28;102733;-48
2022/09/08 06:54:44;;;;;;;20.42;18.92;;;;;;;20.57;65.49;101417.56;4966892;28;102318;-49
2022/09/08 06:57:34;;;;;;;20.20;18.52;;;;;;;20.57;65.71;101406.50;4958667;28;103743;-49
2022/09/08 07:00:10;;;;;;;18.70;17.33;;;;;;;20.57;65.65;101407.31;4973434;28;101993;-48
2022/09/08 07:02:53;;;;;;;18.35;17.05;;;;;;;20.60;65.64;101414.16;4968832;28;102333;-48
2022/09/08 07:05:36;;;;;;;17.10;15.73;;;;;;;20.61;65.61;101407.50;4969203;28;102256;-48
2022/09/08 07:08:14;;;;;;;17.75;16.60;;;;;;;20.62;65.93;101414.66;4962571;28;103884;-47
2022/09/08 07:10:47;;;;;;;17.80;16.63;;;;;;;20.63;65.60;101410.75;4970747;28;102434;-48
2022/09/08 07:13:24;;;;;;;20.70;19.38;;;;;;;20.66;65.32;101421.16;4972780;28;102259;-48
2022/09/08 07:16:01;;;;;;;18.20;16.75;;;;;;;20.65;65.78;101422.31;4973957;28;102666;-48
2022/09/08 07:18:34;;;;;;;19.60;18.20;;;;;;;20.65;65.71;101416.78;4958422;28;104520;-48
2022/09/08 07:21:16;;;;;;;19.42;18.13;;;;;;;20.64;65.56;101412.38;4963895;28;101909;-48
2022/09/08 07:23:45;;;;;;;20.20;18.75;;;;;;;20.65;65.61;101414.00;4968038;28;103111;-48
2022/09/08 07:26:20;;;;;;;18.38;16.80;;;;;;;20.66;65.84;101415.63;4969066;28;102361;-48
2022/09/08 07:28:51;;;;;;;20.95;19.23;;;;;;;20.68;65.76;101418.09;4964701;28;104132;-48
2022/09/08 07:31:20;;;;;;;18.23;16.83;;;;;;;20.69;65.85;101417.75;4961448;28;102111;-48
2022/09/08 07:33:51;;;;;;;22.77;20.95;;;;;;;20.69;65.98;101414.97;4958332;28;102583;-48
2022/09/08 07:36:26;;;;;;;21.10;19.30;;;;;;;20.71;65.99;101414.69;4969847;28;102444;-48
2022/09/08 07:38:55;;;;;;;22.02;20.52;;;;;;;20.74;65.85;101423.16;4975213;28;103920;-48
2022/09/08 07:41:30;;;;;;;21.00;19.25;;;;;;;20.75;65.75;101424.75;4974863;28;102245;-48
2022/09/08 07:43:59;;;;;;;19.13;17.65;;;;;;;20.77;65.78;101422.50;4973924;28;101971;-48
2022/09/08 07:46:41;;;;;;;21.67;20.00;;;;;;;20.79;65.77;101431.28;4963125;28;102484;-48
2022/09/08 07:49:17;;;;;;;18.63;16.67;;;;;;;20.77;65.76;101422.50;4961764;28;103858;-48
2022/09/08 07:51:53;;;;;;;20.50;19.25;;;;;;;20.77;65.49;101422.50;4957664;28;102292;-48
2022/09/08 07:54:41;;;;;;;22.20;20.60;;;;;;;20.78;65.54;101424.13;4967556;28;105168;-47
2022/09/08 07:57:17;;;;;;;21.40;19.90;;;;;;;20.80;65.68;101421.84;4961307;28;102367;-48
2022/09/08 07:59:51;;;;;;;20.42;18.98;;;;;;;20.80;65.44;101416.31;4967876;28;108080;-48
2022/09/08 08:02:44;;;;;;;22.30;21.02;;;;;;;20.81;65.26;101415.19;4973782;28;102573;-49
2022/09/08 08:05:19;;;;;;;19.77;18.48;;;;;;;20.82;65.25;101419.56;4965296;28;102647;-49
2022/09/08 08:07:59;;;;;;;20.08;18.50;;;;;;;20.86;65.37;101411.44;4975812;28;102688;-47
2022/09/08 08:10:32;;;;;;;19.00;17.67;;;;;;;20.87;65.28;101408.34;4969965;28;103972;-48
2022/09/08 08:13:07;;;;;;;21.15;19.67;;;;;;;20.86;65.08;101403.94;4970566;28;102452;-48
2022/09/08 08:15:43;;;;;;;20.27;18.50;;;;;;;20.87;65.29;101400.03;4960742;28;102365;-47
2022/09/08 08:18:18;;;;;;;22.00;20.60;;;;;;;20.90;65.32;101406.06;4958211;28;102031;-48
2022/09/08 08:20:51;;;;;;;20.88;19.50;;;;;;;20.90;65.44;101401.34;4966040;28;104095;-48
2022/09/08 08:23:43;;;;;;;22.15;20.50;;;;;;;20.90;65.50;101400.53;4970628;28;102256;-48
2022/09/08 08:26:28;;;;;;;20.70;19.13;;;;;;;20.86;65.50;101397.59;4973709;28;102369;-48
2022/09/08 08:29:11;;;;;;;22.88;21.10;;;;;;;20.84;65.58;101403.47;4975453;28;102697;-48
2022/09/08 08:31:43;;;;;;;21.48;19.92;;;;;;;20.81;65.74;101390.28;4962656;28;104175;-48
2022/09/08 08:34:16;;;;;;;22.02;20.50;;;;;;;20.82;65.60;101396.63;4974760;28;102351;-47
2022/09/08 08:36:45;;;;;;;21.13;19.50;;;;;;;20.83;65.95;101382.47;4965493;28;102018;-47
2022/09/08 08:39:13;;;;;;;;;;;;;;;20.83;65.97;101385.22;4974927;28;102117;-48
2022/09/08 08:41:58;;;;;;;17.87;16.40;;;;;;;20.86;66.26;101392.88;4966795;28;103978;-48
2022/09/08 08:44:42;;;;;;;20.02;18.50;;;;;;;20.87;66.30;101368.78;4974106;28;103081;-48
2022/09/08 08:47:21;;;;;;;19.27;17.92;;;;;;;20.88;66.42;101379.56;4962612;28;102489;-49
2022/09/08 08:50:17;;;;;;;21.48;19.88;;;;;;;20.88;66.37;101367.69;4966393;28;102032;-49
2022/09/08 08:53:08;;;;;;;20.58;19.13;;;;;;;20.90;66.42;101370.09;4955863;28;103809;-48
2022/09/08 08:55:45;;;;;;;23.58;19.67;;;;;;;20.91;66.52;101367.00;4968724;28;102286;-48
2022/09/08 08:58:34;;;;;;;20.55;18.88;;;;;;;20.92;66.22;101363.13;4970490;28;102080;-49
2022/09/08 09:01:12;;;;;;;20.98;19.60;;;;;;;20.91;66.51;101361.47;4970964;28;102461;-49
2022/09/08 09:04:08;;;;;;;19.70;18.13;;;;;;;20.91;66.60;101371.72;4966113;28;104037;-48
2022/09/08 09:06:51;;;;;;;21.45;19.95;;;;;;;20.91;66.66;101368.94;4967644;28;102385;-49
2022/09/08 09:09:53;;;;;;;20.95;19.17;;;;;;;20.85;66.61;101363.59;4967652;28;102360;-49
2022/09/08 09:12:37;;;;;;;21.30;19.98;;;;;;;20.85;66.59;101349.75;4957792;28;102775;-49
2022/09/08 09:15:25;;;;;;;20.23;18.85;;;;;;;20.84;66.67;101337.09;4961071;28;104021;-49
2022/09/08 09:18:14;;;;;;;22.83;21.02;;;;;;;20.84;66.63;101342.63;4965615;28;102266;-48
2022/09/08 09:21:00;;;;;;;21.30;19.83;;;;;;;20.84;66.65;101345.38;4962303;28;102301;-48
2022/09/08 09:23:36;;;;;;;22.30;20.70;;;;;;;20.85;66.81;101344.22;4968495;28;102818;-50
2022/09/08 09:26:15;;;;;;;24.08;22.20;;;;;;;20.84;66.76;101350.91;4954412;28;104011;-49
2022/09/08 09:29:05;;;;;;;20.23;18.52;;;;;;;20.84;66.79;101345.38;4969707;28;102222;-49
2022/09/08 09:32:04;;;;;;;21.40;20.00;;;;;;;20.83;66.67;101340.16;4954719;28;102639;-49
2022/09/08 09:34:58;;;;;;;20.88;19.20;;;;;;;20.83;66.90;101338.19;4956825;28;102141;-50
2022/09/08 09:37:50;;;;;;;21.02;19.63;;;;;;;20.86;66.94;101343.09;4967084;28;103915;-49
2022/09/08 09:40:27;;;;;;;19.55;18.25;;;;;;;20.88;66.90;101343.59;4960838;28;102595;-48
2022/09/08 09:43:20;;;;;;;21.85;20.33;;;;;;;20.87;66.90;101335.59;4974106;28;102500;-49
2022/09/08 09:46:20;;;;;;;20.85;19.10;;;;;;;20.87;67.14;101330.88;4955643;28;102289;-48
2022/09/08 09:49:12;;;;;;;19.02;17.63;;;;;;;20.88;67.06;101340.81;4954621;28;107938;-48
2022/09/08 09:51:52;;;;;;;21.27;19.77;;;;;;;20.89;67.16;101341.63;4955830;28;102763;-48
2022/09/08 09:54:29;;;;;;;20.08;18.48;;;;;;;20.87;67.05;101339.16;4966492;28;102237;-49
2022/09/08 09:57:34;;;;;;;20.45;19.05;;;;;;;20.87;67.07;101330.88;4966200;28;102229;-49
2022/09/08 10:00:12;;;;;;;19.38;17.58;;;;;;;20.87;67.05;101344.69;4931659;28;104033;-48
2022/09/08 10:03:15;;;;;;;19.15;17.80;;;;;;;20.86;67.15;101342.28;4970584;28;102456;-49
2022/09/08 10:06:19;;;;;;;19.05;17.67;;;;;;;20.85;66.92;101335.94;4968435;28;102052;-49
2022/09/08 10:09:21;;;;;;;21.27;19.45;;;;;;;20.85;67.23;101333.16;4959714;28;104692;-49
2022/09/08 10:12:35;;;;;;;18.35;17.05;;;;;;;20.87;67.07;101339.16;4930143;28;104039;-49
2022/09/08 10:15:37;;;;;;;18.92;17.45;;;;;;;20.85;67.14;101335.94;4966383;28;102328;-48
2022/09/08 10:18:39;;;;;;;20.60;18.98;;;;;;;20.86;67.12;101337.56;4962288;28;102831;-48
2022/09/08 10:21:41;;;;;;;18.90;17.38;;;;;;;20.85;67.07;101330.41;4969507;28;102771;-48
2022/09/08 10:24:41;;;;;;;18.58;17.13;;;;;;;20.83;67.13;101335.44;4952857;28;104025;-50
2022/09/08 10:27:42;;;;;;;18.33;17.15;;;;;;;20.82;67.19;101350.41;4967970;28;102691;-48
2022/09/08 10:30:42;;;;;;;19.58;18.15;;;;;;;20.83;67.21;101340.16;4945269;28;102330;-48
2022/09/08 10:33:33;;;;;;;18.83;17.38;;;;;;;20.86;67.43;101328.44;4967520;28;102657;-49
2022/09/08 10:36:06;;;;;;;17.70;16.00;;;;;;;20.85;67.38;101319.34;4971314;28;104358;-48
2022/09/08 10:38:58;;;;;;;17.73;16.23;;;;;;;20.83;67.63;101316.06;4963016;28;102383;-49
2022/09/08 10:42:06;;;;;;;18.55;17.20;;;;;;;20.85;67.58;101321.28;4974132;28;102533;-48
2022/09/08 10:44:44;;;;;;;19.65;18.25;;;;;;;20.85;67.55;101327.63;4948234;28;102394;-49
2022/09/08 10:47:56;;;;;;;20.55;18.88;;;;;;;20.86;67.60;101317.38;4941050;28;103713;-49
2022/09/08 10:50:25;;;;;;;17.90;16.55;;;;;;;20.85;67.67;101324.88;4958123;28;103227;-48
2022/09/08 10:53:36;;;;;;;19.25;17.70;;;;;;;20.86;67.65;101315.41;4971764;28;102479;-48
2022/09/08 10:56:07;;;;;;;17.90;16.40;;;;;;;20.86;67.84;101320.94;4898636;28;102296;-48
2022/09/08 10:58:59;;;;;;;21.65;20.10;;;;;;;20.86;67.72;101317.38;4899778;28;107925;-48
2022/09/08 11:02:04;;;;;;;19.35;18.02;;;;;;;20.85;67.65;101319.34;4938778;28;102596;-48
2022/09/08 11:05:12;;;;;;;19.65;18.05;;;;;;;20.86;67.72;101320.94;4951810;28;103087;-48
2022/09/08 11:08:23;;;;;;;18.90;17.50;;;;;;;20.86;67.64;101309.06;4955040;28;102115;-48
2022/09/08 11:11:09;;;;;;;18.73;17.25;;;;;;;20.83;67.83;101313.31;4967527;28;108177;-49
2022/09/08 11:13:42;;;;;;;17.60;16.27;;;;;;;20.83;67.66;101310.53;4967894;28;102075;-48
2022/09/08 11:16:56;;;;;;;19.60;18.02;;;;;;;20.82;67.67;101308.91;4958541;28;102032;-48
2022/09/08 11:19:36;;;;;;;20.40;18.67;;;;;;;20.83;67.64;101309.72;4959415;28;102428;-49
2022/09/08 11:22:12;;;;;;;17.38;16.05;;;;;;;20.83;67.66;101309.72;4958675;28;103876;-52
2022/09/08 11:24:52;;;;;;;21.17;19.33;;;;;;;20.82;67.80;101302.56;4962476;28;102554;-48
2022/09/08 11:27:26;;;;;;;20.60;18.88;;;;;;;20.81;67.83;101300.97;4971474;28;102120;-48
2022/09/08 11:30:17;;;;;;;23.10;21.50;;;;;;;20.80;67.68;101304.84;4969767;28;102242;-48
2022/09/08 11:32:56;;;;;;;19.10;17.77;;;;;;;20.79;67.70;101287.44;4967846;28;104057;-47
2022/09/08 11:35:37;;;;;;;19.60;18.13;;;;;;;20.79;67.87;101287.44;4965483;28;102320;-48
2022/09/08 11:38:29;;;;;;;21.48;19.77;;;;;;;20.79;67.81;101284.66;4962320;28;102826;-49
2022/09/08 11:41:33;;;;;;;19.92;18.50;;;;;;;20.79;67.94;101278.31;4964605;28;102607;-48